sensor_id;sensor_type;location;lat;lon;timestamp;P1;durP1;ratioP1;P2;durP2;ratioP2
6358;SDS011;3212;51.460;11.868;2022-07-01T00:03:09;20.50;;;14.73;;
6358;SDS011;3212;51.460;11.868;2022-07-01T00:06:32;22.87;;;15.43;;
6358;SDS011;3212;51.460;11.868;2022-07-01T00:09:55;19.00;;;14.43;;
6358;SDS011;3212;51.460;11.868;2022-07-01T00:13:17;20.17;;;14.57;;
6358;SDS011;3212;51.460;11.868;2022-07-01T00:16:41;19.87;;;14.13;;
6358;SDS011;3212;51.460;11.868;2022-07-01T00:20:05;22.00;;;15.23;;
6358;SDS011;3212;51.460;11.868;2022-07-01T00:23:29;21.37;;;15.20;;
6358;SDS011;3212;51.460;11.868;2022-07-01T00:26:51;18.07;;;13.90;;
6358;SDS011;3212;51.460;11.868;2022-07-01T00:30:15;22.30;;;15.83;;
6358;SDS011;3212;51.460;11.868;2022-07-01T00:33:38;23.43;;;16.23;;
6358;SDS011;3212;51.460;11.868;2022-07-01T00:37:00;20.83;;;15.83;;
6358;SDS011;3212;51.460;11.868;2022-07-01T00:40:23;22.00;;;16.20;;
6358;SDS011;3212;51.460;11.868;2022-07-01T00:43:46;24.03;;;16.50;;
6358;SDS011;3212;51.460;11.868;2022-07-01T00:47:09;22.23;;;16.50;;
6358;SDS011;3212;51.460;11.868;2022-07-01T00:50:31;21.73;;;16.10;;
6358;SDS011;3212;51.460;11.868;2022-07-01T00:53:54;22.63;;;15.63;;
6358;SDS011;3212;51.460;11.868;2022-07-01T00:57:16;21.80;;;16.60;;
6358;SDS011;3212;51.460;11.868;2022-07-01T01:00:41;23.08;;;16.10;;
6358;SDS011;3212;51.460;11.868;2022-07-01T01:04:03;22.07;;;15.87;;
6358;SDS011;3212;51.460;11.868;2022-07-01T01:07:26;22.20;;;15.63;;
6358;SDS011;3212;51.460;11.868;2022-07-01T01:10:49;25.47;;;16.50;;
6358;SDS011;3212;51.460;11.868;2022-07-01T01:14:12;22.47;;;16.10;;
6358;SDS011;3212;51.460;11.868;2022-07-01T01:17:35;23.30;;;16.70;;
6358;SDS011;3212;51.460;11.868;2022-07-01T01:21:00;23.27;;;16.10;;
6358;SDS011;3212;51.460;11.868;2022-07-01T01:24:24;23.07;;;15.87;;
6358;SDS011;3212;51.460;11.868;2022-07-01T01:27:46;22.33;;;16.50;;
6358;SDS011;3212;51.460;11.868;2022-07-01T01:31:09;31.20;;;16.10;;
6358;SDS011;3212;51.460;11.868;2022-07-01T01:34:33;22.43;;;15.03;;
6358;SDS011;3212;51.460;11.868;2022-07-01T01:37:56;22.20;;;16.30;;
6358;SDS011;3212;51.460;11.868;2022-07-01T01:41:19;24.07;;;16.30;;
6358;SDS011;3212;51.460;11.868;2022-07-01T01:44:43;22.13;;;15.77;;
6358;SDS011;3212;51.460;11.868;2022-07-01T01:48:05;23.10;;;16.63;;
6358;SDS011;3212;51.460;11.868;2022-07-01T01:51:28;29.13;;;16.87;;
6358;SDS011;3212;51.460;11.868;2022-07-01T01:54:51;24.20;;;17.97;;
6358;SDS011;3212;51.460;11.868;2022-07-01T01:58:14;25.90;;;16.10;;
6358;SDS011;3212;51.460;11.868;2022-07-01T02:01:36;25.20;;;16.10;;
6358;SDS011;3212;51.460;11.868;2022-07-01T02:04:59;23.33;;;16.50;;
6358;SDS011;3212;51.460;11.868;2022-07-01T02:08:21;27.10;;;18.70;;
6358;SDS011;3212;51.460;11.868;2022-07-01T02:11:44;30.57;;;20.07;;
6358;SDS011;3212;51.460;11.868;2022-07-01T02:15:07;36.80;;;20.70;;
6358;SDS011;3212;51.460;11.868;2022-07-01T02:18:29;32.90;;;20.73;;
6358;SDS011;3212;51.460;11.868;2022-07-01T02:21:52;30.40;;;22.10;;
6358;SDS011;3212;51.460;11.868;2022-07-01T02:25:15;34.70;;;22.30;;
6358;SDS011;3212;51.460;11.868;2022-07-01T02:28:37;33.47;;;20.40;;
6358;SDS011;3212;51.460;11.868;2022-07-01T02:32:00;31.17;;;20.87;;
6358;SDS011;3212;51.460;11.868;2022-07-01T02:35:23;30.80;;;21.00;;
6358;SDS011;3212;51.460;11.868;2022-07-01T02:38:46;29.43;;;19.80;;
6358;SDS011;3212;51.460;11.868;2022-07-01T02:42:09;32.80;;;19.03;;
6358;SDS011;3212;51.460;11.868;2022-07-01T02:45:42;33.67;;;19.50;;
6358;SDS011;3212;51.460;11.868;2022-07-01T02:49:06;26.00;;;18.67;;
6358;SDS011;3212;51.460;11.868;2022-07-01T02:52:28;26.97;;;18.50;;
6358;SDS011;3212;51.460;11.868;2022-07-01T02:55:51;29.12;;;20.28;;
6358;SDS011;3212;51.460;11.868;2022-07-01T02:59:14;25.63;;;17.10;;
6358;SDS011;3212;51.460;11.868;2022-07-01T03:02:37;23.10;;;14.90;;
6358;SDS011;3212;51.460;11.868;2022-07-01T03:05:59;19.10;;;13.53;;
6358;SDS011;3212;51.460;11.868;2022-07-01T03:09:22;22.30;;;14.67;;
6358;SDS011;3212;51.460;11.868;2022-07-01T03:12:45;20.50;;;13.50;;
6358;SDS011;3212;51.460;11.868;2022-07-01T03:16:14;18.20;;;13.10;;
6358;SDS011;3212;51.460;11.868;2022-07-01T03:19:38;17.80;;;12.63;;
6358;SDS011;3212;51.460;11.868;2022-07-01T03:23:00;25.80;;;16.03;;
6358;SDS011;3212;51.460;11.868;2022-07-01T03:26:24;27.03;;;18.20;;
6358;SDS011;3212;51.460;11.868;2022-07-01T03:29:46;29.73;;;19.00;;
6358;SDS011;3212;51.460;11.868;2022-07-01T03:33:08;33.53;;;19.73;;
6358;SDS011;3212;51.460;11.868;2022-07-01T03:36:31;30.13;;;19.67;;
6358;SDS011;3212;51.460;11.868;2022-07-01T03:39:54;30.57;;;20.93;;
6358;SDS011;3212;51.460;11.868;2022-07-01T03:43:17;27.33;;;20.50;;
6358;SDS011;3212;51.460;11.868;2022-07-01T03:46:40;29.67;;;21.97;;
6358;SDS011;3212;51.460;11.868;2022-07-01T03:50:04;34.13;;;21.07;;
6358;SDS011;3212;51.460;11.868;2022-07-01T03:53:27;29.70;;;20.77;;
6358;SDS011;3212;51.460;11.868;2022-07-01T03:56:57;31.03;;;22.03;;
6358;SDS011;3212;51.460;11.868;2022-07-01T04:00:19;32.03;;;21.77;;
6358;SDS011;3212;51.460;11.868;2022-07-01T04:03:41;33.97;;;22.20;;
6358;SDS011;3212;51.460;11.868;2022-07-01T04:07:04;29.63;;;20.30;;
6358;SDS011;3212;51.460;11.868;2022-07-01T04:10:27;30.57;;;21.13;;
6358;SDS011;3212;51.460;11.868;2022-07-01T04:13:50;33.33;;;21.60;;
6358;SDS011;3212;51.460;11.868;2022-07-01T04:17:12;30.70;;;20.47;;
6358;SDS011;3212;51.460;11.868;2022-07-01T04:20:35;28.60;;;19.80;;
6358;SDS011;3212;51.460;11.868;2022-07-01T04:23:57;30.67;;;20.87;;
6358;SDS011;3212;51.460;11.868;2022-07-01T04:27:21;27.50;;;18.73;;
6358;SDS011;3212;51.460;11.868;2022-07-01T04:30:44;28.20;;;18.73;;
6358;SDS011;3212;51.460;11.868;2022-07-01T04:34:07;32.60;;;20.53;;
6358;SDS011;3212;51.460;11.868;2022-07-01T04:37:30;28.70;;;19.60;;
6358;SDS011;3212;51.460;11.868;2022-07-01T04:40:52;29.80;;;19.87;;
6358;SDS011;3212;51.460;11.868;2022-07-01T04:44:21;24.77;;;18.60;;
6358;SDS011;3212;51.460;11.868;2022-07-01T04:47:44;27.17;;;18.70;;
6358;SDS011;3212;51.460;11.868;2022-07-01T04:51:07;29.37;;;20.10;;
6358;SDS011;3212;51.460;11.868;2022-07-01T04:54:30;27.97;;;19.00;;
6358;SDS011;3212;51.460;11.868;2022-07-01T04:57:53;25.90;;;17.53;;
6358;SDS011;3212;51.460;11.868;2022-07-01T05:01:15;25.83;;;17.77;;
6358;SDS011;3212;51.460;11.868;2022-07-01T05:04:38;31.20;;;18.70;;
6358;SDS011;3212;51.460;11.868;2022-07-01T05:08:00;26.90;;;17.07;;
6358;SDS011;3212;51.460;11.868;2022-07-01T05:11:23;25.43;;;17.37;;
6358;SDS011;3212;51.460;11.868;2022-07-01T05:14:46;24.80;;;16.43;;
6358;SDS011;3212;51.460;11.868;2022-07-01T05:18:09;22.80;;;16.30;;
6358;SDS011;3212;51.460;11.868;2022-07-01T05:21:46;24.63;;;15.37;;
6358;SDS011;3212;51.460;11.868;2022-07-01T05:25:15;23.50;;;14.23;;
6358;SDS011;3212;51.460;11.868;2022-07-01T05:28:38;24.90;;;16.20;;
6358;SDS011;3212;51.460;11.868;2022-07-01T05:32:01;24.70;;;15.13;;
6358;SDS011;3212;51.460;11.868;2022-07-01T05:35:24;19.17;;;13.37;;
6358;SDS011;3212;51.460;11.868;2022-07-01T05:38:46;20.83;;;12.97;;
6358;SDS011;3212;51.460;11.868;2022-07-01T05:42:09;21.70;;;11.63;;
6358;SDS011;3212;51.460;11.868;2022-07-01T05:45:32;15.07;;;10.80;;
6358;SDS011;3212;51.460;11.868;2022-07-01T05:48:54;14.10;;;9.63;;
6358;SDS011;3212;51.460;11.868;2022-07-01T05:52:17;10.20;;;8.50;;
6358;SDS011;3212;51.460;11.868;2022-07-01T05:55:39;15.03;;;8.57;;
6358;SDS011;3212;51.460;11.868;2022-07-01T05:59:03;13.03;;;8.60;;
6358;SDS011;3212;51.460;11.868;2022-07-01T06:02:25;10.80;;;8.20;;
6358;SDS011;3212;51.460;11.868;2022-07-01T06:05:48;8.90;;;7.50;;
6358;SDS011;3212;51.460;11.868;2022-07-01T06:09:10;11.63;;;7.93;;
6358;SDS011;3212;51.460;11.868;2022-07-01T06:12:33;12.70;;;8.10;;
6358;SDS011;3212;51.460;11.868;2022-07-01T06:15:55;12.10;;;8.20;;
6358;SDS011;3212;51.460;11.868;2022-07-01T06:19:21;10.10;;;7.70;;
6358;SDS011;3212;51.460;11.868;2022-07-01T06:22:43;8.77;;;6.60;;
6358;SDS011;3212;51.460;11.868;2022-07-01T06:26:07;7.40;;;6.20;;
6358;SDS011;3212;51.460;11.868;2022-07-01T06:29:30;8.00;;;5.83;;
6358;SDS011;3212;51.460;11.868;2022-07-01T06:32:53;10.87;;;7.00;;
6358;SDS011;3212;51.460;11.868;2022-07-01T06:36:16;11.60;;;6.57;;
6358;SDS011;3212;51.460;11.868;2022-07-01T06:39:38;7.30;;;5.80;;
6358;SDS011;3212;51.460;11.868;2022-07-01T06:43:01;7.83;;;5.93;;
6358;SDS011;3212;51.460;11.868;2022-07-01T06:46:23;9.57;;;6.50;;
6358;SDS011;3212;51.460;11.868;2022-07-01T06:49:46;7.40;;;6.37;;
6358;SDS011;3212;51.460;11.868;2022-07-01T06:53:09;13.07;;;6.60;;
6358;SDS011;3212;51.460;11.868;2022-07-01T06:56:31;8.10;;;6.70;;
6358;SDS011;3212;51.460;11.868;2022-07-01T06:59:55;8.60;;;6.30;;
6358;SDS011;3212;51.460;11.868;2022-07-01T07:03:19;9.53;;;6.50;;
6358;SDS011;3212;51.460;11.868;2022-07-01T07:06:41;10.50;;;7.33;;
6358;SDS011;3212;51.460;11.868;2022-07-01T07:10:04;8.40;;;6.53;;
6358;SDS011;3212;51.460;11.868;2022-07-01T07:13:27;8.00;;;6.00;;
6358;SDS011;3212;51.460;11.868;2022-07-01T07:16:50;7.63;;;5.87;;
6358;SDS011;3212;51.460;11.868;2022-07-01T07:20:13;8.77;;;6.63;;
6358;SDS011;3212;51.460;11.868;2022-07-01T07:23:35;10.47;;;6.63;;
6358;SDS011;3212;51.460;11.868;2022-07-01T07:26:58;8.40;;;7.00;;
6358;SDS011;3212;51.460;11.868;2022-07-01T07:30:20;12.27;;;6.43;;
6358;SDS011;3212;51.460;11.868;2022-07-01T07:33:43;11.40;;;6.67;;
6358;SDS011;3212;51.460;11.868;2022-07-01T07:37:06;9.63;;;6.50;;
6358;SDS011;3212;51.460;11.868;2022-07-01T07:40:28;12.10;;;7.50;;
6358;SDS011;3212;51.460;11.868;2022-07-01T07:43:50;10.00;;;7.30;;
6358;SDS011;3212;51.460;11.868;2022-07-01T07:47:13;12.75;;;8.05;;
6358;SDS011;3212;51.460;11.868;2022-07-01T07:50:36;12.07;;;8.20;;
6358;SDS011;3212;51.460;11.868;2022-07-01T07:53:59;12.57;;;8.37;;
6358;SDS011;3212;51.460;11.868;2022-07-01T07:57:21;14.03;;;9.07;;
6358;SDS011;3212;51.460;11.868;2022-07-01T08:00:44;18.47;;;11.07;;
6358;SDS011;3212;51.460;11.868;2022-07-01T08:04:06;17.90;;;10.67;;
6358;SDS011;3212;51.460;11.868;2022-07-01T08:07:29;15.30;;;9.33;;
6358;SDS011;3212;51.460;11.868;2022-07-01T08:10:52;15.30;;;8.80;;
6358;SDS011;3212;51.460;11.868;2022-07-01T08:14:15;12.37;;;8.73;;
6358;SDS011;3212;51.460;11.868;2022-07-01T08:17:39;16.53;;;9.00;;
6358;SDS011;3212;51.460;11.868;2022-07-01T08:21:02;13.77;;;9.57;;
6358;SDS011;3212;51.460;11.868;2022-07-01T08:24:26;15.33;;;9.70;;
6358;SDS011;3212;51.460;11.868;2022-07-01T08:27:48;13.57;;;9.50;;
6358;SDS011;3212;51.460;11.868;2022-07-01T08:31:11;13.50;;;9.43;;
6358;SDS011;3212;51.460;11.868;2022-07-01T08:34:34;16.57;;;9.13;;
6358;SDS011;3212;51.460;11.868;2022-07-01T08:37:57;15.97;;;8.87;;
6358;SDS011;3212;51.460;11.868;2022-07-01T08:41:20;11.53;;;7.17;;
6358;SDS011;3212;51.460;11.868;2022-07-01T08:44:43;10.27;;;6.97;;
6358;SDS011;3212;51.460;11.868;2022-07-01T08:48:06;12.13;;;7.90;;
6358;SDS011;3212;51.460;11.868;2022-07-01T08:51:29;11.77;;;6.97;;
6358;SDS011;3212;51.460;11.868;2022-07-01T08:54:52;7.87;;;6.40;;
6358;SDS011;3212;51.460;11.868;2022-07-01T08:58:15;6.83;;;5.47;;
6358;SDS011;3212;51.460;11.868;2022-07-01T09:01:37;7.63;;;6.03;;
6358;SDS011;3212;51.460;11.868;2022-07-01T09:05:04;8.53;;;6.40;;
6358;SDS011;3212;51.460;11.868;2022-07-01T09:08:27;10.33;;;7.50;;
6358;SDS011;3212;51.460;11.868;2022-07-01T09:11:50;9.53;;;6.30;;
6358;SDS011;3212;51.460;11.868;2022-07-01T09:15:23;10.60;;;6.90;;
6358;SDS011;3212;51.460;11.868;2022-07-01T09:19:03;10.53;;;6.77;;
6358;SDS011;3212;51.460;11.868;2022-07-01T09:22:24;8.60;;;6.60;;
6358;SDS011;3212;51.460;11.868;2022-07-01T09:25:48;9.07;;;6.73;;
6358;SDS011;3212;51.460;11.868;2022-07-01T09:29:10;7.30;;;5.93;;
6358;SDS011;3212;51.460;11.868;2022-07-01T09:32:33;9.30;;;5.90;;
6358;SDS011;3212;51.460;11.868;2022-07-01T09:35:56;6.80;;;5.70;;
6358;SDS011;3212;51.460;11.868;2022-07-01T09:39:18;7.53;;;5.63;;
6358;SDS011;3212;51.460;11.868;2022-07-01T09:42:43;6.87;;;5.40;;
6358;SDS011;3212;51.460;11.868;2022-07-01T09:46:05;6.53;;;4.73;;
6358;SDS011;3212;51.460;11.868;2022-07-01T09:49:28;9.70;;;5.47;;
6358;SDS011;3212;51.460;11.868;2022-07-01T09:52:50;8.57;;;5.50;;
6358;SDS011;3212;51.460;11.868;2022-07-01T09:56:13;7.87;;;5.20;;
6358;SDS011;3212;51.460;11.868;2022-07-01T09:59:36;7.27;;;5.60;;
6358;SDS011;3212;51.460;11.868;2022-07-01T10:03:00;10.23;;;5.30;;
6358;SDS011;3212;51.460;11.868;2022-07-01T10:06:31;6.67;;;4.90;;
6358;SDS011;3212;51.460;11.868;2022-07-01T10:13:38;7.90;;;4.93;;
6358;SDS011;3212;51.460;11.868;2022-07-01T10:17:01;5.73;;;4.00;;
6358;SDS011;3212;51.460;11.868;2022-07-01T10:20:24;5.20;;;4.00;;
6358;SDS011;3212;51.460;11.868;2022-07-01T10:23:46;4.03;;;3.50;;
6358;SDS011;3212;51.460;11.868;2022-07-01T10:27:09;6.40;;;3.80;;
6358;SDS011;3212;51.460;11.868;2022-07-01T10:30:32;4.50;;;3.90;;
6358;SDS011;3212;51.460;11.868;2022-07-01T10:33:56;4.40;;;3.43;;
6358;SDS011;3212;51.460;11.868;2022-07-01T10:37:17;4.67;;;3.87;;
6358;SDS011;3212;51.460;11.868;2022-07-01T10:40:41;3.57;;;3.10;;
6358;SDS011;3212;51.460;11.868;2022-07-01T10:44:08;2.50;;;2.30;;
6358;SDS011;3212;51.460;11.868;2022-07-01T10:47:30;4.87;;;2.90;;
6358;SDS011;3212;51.460;11.868;2022-07-01T10:50:53;3.20;;;2.90;;
6358;SDS011;3212;51.460;11.868;2022-07-01T10:57:51;2.70;;;2.50;;
6358;SDS011;3212;51.460;11.868;2022-07-01T11:01:14;3.30;;;2.60;;
6358;SDS011;3212;51.460;11.868;2022-07-01T11:04:37;2.83;;;2.63;;
6358;SDS011;3212;51.460;11.868;2022-07-01T11:08:00;3.80;;;2.93;;
6358;SDS011;3212;51.460;11.868;2022-07-01T11:11:22;5.40;;;3.40;;
6358;SDS011;3212;51.460;11.868;2022-07-01T11:14:45;3.40;;;2.77;;
6358;SDS011;3212;51.460;11.868;2022-07-01T11:18:08;3.10;;;2.47;;
6358;SDS011;3212;51.460;11.868;2022-07-01T11:21:31;4.37;;;3.70;;
6358;SDS011;3212;51.460;11.868;2022-07-01T11:24:54;3.23;;;2.87;;
6358;SDS011;3212;51.460;11.868;2022-07-01T11:28:19;3.60;;;2.90;;
6358;SDS011;3212;51.460;11.868;2022-07-01T11:31:41;3.30;;;3.00;;
6358;SDS011;3212;51.460;11.868;2022-07-01T11:35:05;3.20;;;2.90;;
6358;SDS011;3212;51.460;11.868;2022-07-01T11:38:44;5.10;;;3.33;;
6358;SDS011;3212;51.460;11.868;2022-07-01T11:42:11;3.60;;;3.10;;
6358;SDS011;3212;51.460;11.868;2022-07-01T11:45:35;3.80;;;3.30;;
6358;SDS011;3212;51.460;11.868;2022-07-01T11:48:58;3.40;;;3.10;;
6358;SDS011;3212;51.460;11.868;2022-07-01T11:52:21;3.07;;;2.77;;
6358;SDS011;3212;51.460;11.868;2022-07-01T11:55:45;3.77;;;2.90;;
6358;SDS011;3212;51.460;11.868;2022-07-01T11:59:07;2.97;;;2.67;;
6358;SDS011;3212;51.460;11.868;2022-07-01T12:02:30;4.33;;;2.30;;
6358;SDS011;3212;51.460;11.868;2022-07-01T12:05:52;3.10;;;2.47;;
6358;SDS011;3212;51.460;11.868;2022-07-01T12:09:16;2.40;;;2.03;;
6358;SDS011;3212;51.460;11.868;2022-07-01T12:12:37;2.73;;;2.07;;
6358;SDS011;3212;51.460;11.868;2022-07-01T12:16:06;2.20;;;2.00;;
6358;SDS011;3212;51.460;11.868;2022-07-01T12:19:41;3.23;;;2.37;;
6358;SDS011;3212;51.460;11.868;2022-07-01T12:23:10;3.87;;;2.60;;
6358;SDS011;3212;51.460;11.868;2022-07-01T12:26:33;2.73;;;2.33;;
6358;SDS011;3212;51.460;11.868;2022-07-01T12:29:55;3.00;;;2.07;;
6358;SDS011;3212;51.460;11.868;2022-07-01T12:33:19;2.50;;;2.30;;
6358;SDS011;3212;51.460;11.868;2022-07-01T12:36:46;3.03;;;2.30;;
6358;SDS011;3212;51.460;11.868;2022-07-01T12:43:41;3.23;;;2.93;;
6358;SDS011;3212;51.460;11.868;2022-07-01T12:50:39;3.67;;;2.53;;
6358;SDS011;3212;51.460;11.868;2022-07-01T12:54:02;4.03;;;3.03;;
6358;SDS011;3212;51.460;11.868;2022-07-01T12:57:30;3.50;;;3.20;;
6358;SDS011;3212;51.460;11.868;2022-07-01T13:00:54;3.63;;;2.93;;
6358;SDS011;3212;51.460;11.868;2022-07-01T13:04:27;4.03;;;3.00;;
6358;SDS011;3212;51.460;11.868;2022-07-01T13:07:50;3.90;;;3.03;;
6358;SDS011;3212;51.460;11.868;2022-07-01T13:11:13;4.43;;;4.03;;
6358;SDS011;3212;51.460;11.868;2022-07-01T13:14:36;4.30;;;3.40;;
6358;SDS011;3212;51.460;11.868;2022-07-01T13:17:58;4.23;;;3.83;;
6358;SDS011;3212;51.460;11.868;2022-07-01T13:21:21;6.40;;;3.90;;
6358;SDS011;3212;51.460;11.868;2022-07-01T13:24:43;4.27;;;3.87;;
6358;SDS011;3212;51.460;11.868;2022-07-01T13:28:06;4.00;;;3.60;;
6358;SDS011;3212;51.460;11.868;2022-07-01T13:31:29;5.33;;;4.30;;
6358;SDS011;3212;51.460;11.868;2022-07-01T13:34:51;5.47;;;4.20;;
6358;SDS011;3212;51.460;11.868;2022-07-01T13:38:14;5.43;;;4.57;;
6358;SDS011;3212;51.460;11.868;2022-07-01T13:41:36;6.00;;;4.70;;
6358;SDS011;3212;51.460;11.868;2022-07-01T13:45:01;7.53;;;5.03;;
6358;SDS011;3212;51.460;11.868;2022-07-01T13:48:23;8.30;;;4.80;;
6358;SDS011;3212;51.460;11.868;2022-07-01T13:51:46;8.30;;;4.80;;
6358;SDS011;3212;51.460;11.868;2022-07-01T13:55:09;8.63;;;4.93;;
6358;SDS011;3212;51.460;11.868;2022-07-01T13:58:31;6.20;;;4.73;;
6358;SDS011;3212;51.460;11.868;2022-07-01T14:01:54;9.70;;;5.43;;
6358;SDS011;3212;51.460;11.868;2022-07-01T14:05:19;6.43;;;5.50;;
6358;SDS011;3212;51.460;11.868;2022-07-01T14:08:41;5.78;;;4.97;;
6358;SDS011;3212;51.460;11.868;2022-07-01T14:12:04;9.80;;;7.37;;
6358;SDS011;3212;51.460;11.868;2022-07-01T14:15:27;14.93;;;8.73;;
6358;SDS011;3212;51.460;11.868;2022-07-01T14:18:49;17.00;;;9.53;;
6358;SDS011;3212;51.460;11.868;2022-07-01T14:22:12;15.57;;;8.37;;
6358;SDS011;3212;51.460;11.868;2022-07-01T14:25:34;15.20;;;8.90;;
6358;SDS011;3212;51.460;11.868;2022-07-01T14:28:57;11.20;;;7.63;;
6358;SDS011;3212;51.460;11.868;2022-07-01T14:32:19;10.10;;;7.03;;
6358;SDS011;3212;51.460;11.868;2022-07-01T14:35:43;11.23;;;7.60;;
6358;SDS011;3212;51.460;11.868;2022-07-01T14:39:06;13.60;;;8.33;;
6358;SDS011;3212;51.460;11.868;2022-07-01T14:42:29;15.70;;;7.93;;
6358;SDS011;3212;51.460;11.868;2022-07-01T14:45:52;13.05;;;7.43;;
6358;SDS011;3212;51.460;11.868;2022-07-01T14:49:15;9.53;;;6.70;;
6358;SDS011;3212;51.460;11.868;2022-07-01T14:52:37;9.00;;;7.03;;
6358;SDS011;3212;51.460;11.868;2022-07-01T14:56:00;12.93;;;7.53;;
6358;SDS011;3212;51.460;11.868;2022-07-01T14:59:22;13.13;;;7.27;;
6358;SDS011;3212;51.460;11.868;2022-07-01T15:02:45;12.33;;;7.00;;
6358;SDS011;3212;51.460;11.868;2022-07-01T15:06:07;9.30;;;6.87;;
6358;SDS011;3212;51.460;11.868;2022-07-01T15:09:31;7.90;;;6.97;;
6358;SDS011;3212;51.460;11.868;2022-07-01T15:12:54;8.53;;;6.40;;
6358;SDS011;3212;51.460;11.868;2022-07-01T15:16:17;10.43;;;6.37;;
6358;SDS011;3212;51.460;11.868;2022-07-01T15:19:40;12.10;;;9.10;;
6358;SDS011;3212;51.460;11.868;2022-07-01T15:23:03;13.93;;;8.47;;
6358;SDS011;3212;51.460;11.868;2022-07-01T15:26:26;11.70;;;7.70;;
6358;SDS011;3212;51.460;11.868;2022-07-01T15:29:52;10.60;;;7.50;;
6358;SDS011;3212;51.460;11.868;2022-07-01T15:33:15;10.10;;;7.30;;
6358;SDS011;3212;51.460;11.868;2022-07-01T15:36:38;13.17;;;8.10;;
6358;SDS011;3212;51.460;11.868;2022-07-01T15:40:01;11.43;;;8.07;;
6358;SDS011;3212;51.460;11.868;2022-07-01T15:43:23;10.63;;;7.50;;
6358;SDS011;3212;51.460;11.868;2022-07-01T15:46:45;12.27;;;8.47;;
6358;SDS011;3212;51.460;11.868;2022-07-01T15:50:09;13.10;;;8.97;;
6358;SDS011;3212;51.460;11.868;2022-07-01T15:53:31;13.67;;;9.07;;
6358;SDS011;3212;51.460;11.868;2022-07-01T15:56:54;13.37;;;9.00;;
6358;SDS011;3212;51.460;11.868;2022-07-01T16:00:16;14.57;;;8.83;;
6358;SDS011;3212;51.460;11.868;2022-07-01T16:03:39;12.13;;;8.77;;
6358;SDS011;3212;51.460;11.868;2022-07-01T16:07:02;13.53;;;9.20;;
6358;SDS011;3212;51.460;11.868;2022-07-01T16:10:33;12.40;;;8.67;;
6358;SDS011;3212;51.460;11.868;2022-07-01T16:13:57;10.88;;;7.95;;
6358;SDS011;3212;51.460;11.868;2022-07-01T16:17:21;10.60;;;7.70;;
6358;SDS011;3212;51.460;11.868;2022-07-01T16:20:44;12.10;;;7.83;;
6358;SDS011;3212;51.460;11.868;2022-07-01T16:24:05;13.43;;;8.03;;
6358;SDS011;3212;51.460;11.868;2022-07-01T16:27:28;11.70;;;8.20;;
6358;SDS011;3212;51.460;11.868;2022-07-01T16:30:50;11.13;;;7.77;;
6358;SDS011;3212;51.460;11.868;2022-07-01T16:34:15;13.40;;;7.93;;
6358;SDS011;3212;51.460;11.868;2022-07-01T16:37:38;11.70;;;7.50;;
6358;SDS011;3212;51.460;11.868;2022-07-01T16:41:02;12.00;;;7.77;;
6358;SDS011;3212;51.460;11.868;2022-07-01T16:44:29;10.30;;;7.60;;
6358;SDS011;3212;51.460;11.868;2022-07-01T16:47:50;10.50;;;6.80;;
6358;SDS011;3212;51.460;11.868;2022-07-01T16:51:13;9.70;;;7.10;;
6358;SDS011;3212;51.460;11.868;2022-07-01T16:54:37;8.53;;;6.23;;
6358;SDS011;3212;51.460;11.868;2022-07-01T16:58:02;9.90;;;6.10;;
6358;SDS011;3212;51.460;11.868;2022-07-01T17:01:25;8.63;;;6.30;;
6358;SDS011;3212;51.460;11.868;2022-07-01T17:04:47;8.83;;;5.83;;
6358;SDS011;3212;51.460;11.868;2022-07-01T17:08:10;6.90;;;5.67;;
6358;SDS011;3212;51.460;11.868;2022-07-01T17:11:32;7.53;;;5.40;;
6358;SDS011;3212;51.460;11.868;2022-07-01T17:14:55;9.13;;;6.33;;
6358;SDS011;3212;51.460;11.868;2022-07-01T17:18:17;7.13;;;6.13;;
6358;SDS011;3212;51.460;11.868;2022-07-01T17:21:42;6.27;;;5.23;;
6358;SDS011;3212;51.460;11.868;2022-07-01T17:25:07;10.13;;;5.53;;
6358;SDS011;3212;51.460;11.868;2022-07-01T17:28:36;9.93;;;5.77;;
6358;SDS011;3212;51.460;11.868;2022-07-01T17:32:03;4.70;;;4.00;;
6358;SDS011;3212;51.460;11.868;2022-07-01T17:35:25;6.00;;;4.67;;
6358;SDS011;3212;51.460;11.868;2022-07-01T17:38:57;5.30;;;4.43;;
6358;SDS011;3212;51.460;11.868;2022-07-01T17:42:24;4.70;;;4.20;;
6358;SDS011;3212;51.460;11.868;2022-07-01T17:45:47;8.67;;;4.90;;
6358;SDS011;3212;51.460;11.868;2022-07-01T17:49:11;5.17;;;4.60;;
6358;SDS011;3212;51.460;11.868;2022-07-01T17:52:33;9.23;;;5.10;;
6358;SDS011;3212;51.460;11.868;2022-07-01T17:55:56;5.80;;;5.20;;
6358;SDS011;3212;51.460;11.868;2022-07-01T17:59:19;6.03;;;5.40;;
6358;SDS011;3212;51.460;11.868;2022-07-01T18:02:41;6.90;;;5.40;;
6358;SDS011;3212;51.460;11.868;2022-07-01T18:06:04;10.27;;;5.30;;
6358;SDS011;3212;51.460;11.868;2022-07-01T18:09:27;7.73;;;5.97;;
6358;SDS011;3212;51.460;11.868;2022-07-01T18:12:49;7.40;;;5.30;;
6358;SDS011;3212;51.460;11.868;2022-07-01T18:16:12;6.90;;;5.80;;
6358;SDS011;3212;51.460;11.868;2022-07-01T18:19:38;8.93;;;5.80;;
6358;SDS011;3212;51.460;11.868;2022-07-01T18:23:16;9.03;;;5.50;;
6358;SDS011;3212;51.460;11.868;2022-07-01T18:26:52;10.67;;;5.83;;
6358;SDS011;3212;51.460;11.868;2022-07-01T18:30:16;7.60;;;5.90;;
6358;SDS011;3212;51.460;11.868;2022-07-01T18:33:45;8.13;;;6.33;;
6358;SDS011;3212;51.460;11.868;2022-07-01T18:37:17;6.60;;;5.77;;
6358;SDS011;3212;51.460;11.868;2022-07-01T18:40:39;10.83;;;5.60;;
6358;SDS011;3212;51.460;11.868;2022-07-01T18:44:01;6.33;;;4.83;;
6358;SDS011;3212;51.460;11.868;2022-07-01T18:47:24;7.50;;;5.63;;
6358;SDS011;3212;51.460;11.868;2022-07-01T18:50:46;7.27;;;4.60;;
6358;SDS011;3212;51.460;11.868;2022-07-01T18:54:09;11.43;;;5.40;;
6358;SDS011;3212;51.460;11.868;2022-07-01T18:57:34;6.30;;;5.33;;
6358;SDS011;3212;51.460;11.868;2022-07-01T19:00:56;11.60;;;4.80;;
6358;SDS011;3212;51.460;11.868;2022-07-01T19:04:18;10.03;;;5.67;;
6358;SDS011;3212;51.460;11.868;2022-07-01T19:07:41;7.60;;;5.13;;
6358;SDS011;3212;51.460;11.868;2022-07-01T19:11:03;11.70;;;6.20;;
6358;SDS011;3212;51.460;11.868;2022-07-01T19:14:26;7.60;;;5.30;;
6358;SDS011;3212;51.460;11.868;2022-07-01T19:17:48;8.03;;;5.40;;
6358;SDS011;3212;51.460;11.868;2022-07-01T19:21:13;6.70;;;5.27;;
6358;SDS011;3212;51.460;11.868;2022-07-01T19:24:35;12.67;;;7.23;;
6358;SDS011;3212;51.460;11.868;2022-07-01T19:27:57;7.30;;;5.60;;
6358;SDS011;3212;51.460;11.868;2022-07-01T19:31:20;9.87;;;5.30;;
6358;SDS011;3212;51.460;11.868;2022-07-01T19:34:43;11.40;;;5.73;;
6358;SDS011;3212;51.460;11.868;2022-07-01T19:38:06;7.27;;;5.30;;
6358;SDS011;3212;51.460;11.868;2022-07-01T19:41:29;8.47;;;5.30;;
6358;SDS011;3212;51.460;11.868;2022-07-01T19:44:52;7.07;;;4.63;;
6358;SDS011;3212;51.460;11.868;2022-07-01T19:48:14;8.50;;;5.12;;
6358;SDS011;3212;51.460;11.868;2022-07-01T19:51:37;9.70;;;5.87;;
6358;SDS011;3212;51.460;11.868;2022-07-01T19:54:59;8.27;;;6.23;;
6358;SDS011;3212;51.460;11.868;2022-07-01T19:58:22;11.70;;;5.80;;
6358;SDS011;3212;51.460;11.868;2022-07-01T20:01:45;13.10;;;5.80;;
6358;SDS011;3212;51.460;11.868;2022-07-01T20:05:08;11.10;;;6.00;;
6358;SDS011;3212;51.460;11.868;2022-07-01T20:08:31;8.83;;;5.30;;
6358;SDS011;3212;51.460;11.868;2022-07-01T20:11:53;10.60;;;6.10;;
6358;SDS011;3212;51.460;11.868;2022-07-01T20:15:16;11.83;;;5.90;;
6358;SDS011;3212;51.460;11.868;2022-07-01T20:18:39;10.77;;;6.50;;
6358;SDS011;3212;51.460;11.868;2022-07-01T20:22:02;13.67;;;6.47;;
6358;SDS011;3212;51.460;11.868;2022-07-01T20:25:25;12.37;;;7.00;;
6358;SDS011;3212;51.460;11.868;2022-07-01T20:28:47;12.93;;;7.07;;
6358;SDS011;3212;51.460;11.868;2022-07-01T20:32:10;7.50;;;5.80;;
6358;SDS011;3212;51.460;11.868;2022-07-01T20:35:32;11.90;;;6.33;;
6358;SDS011;3212;51.460;11.868;2022-07-01T20:38:55;11.90;;;6.50;;
6358;SDS011;3212;51.460;11.868;2022-07-01T20:42:17;12.60;;;6.93;;
6358;SDS011;3212;51.460;11.868;2022-07-01T20:45:40;9.03;;;6.60;;